Flight Track Log - Related Links

Times and Time Zones

All times are in EST time to prevent confusion due to time zone crossing. See the GLO1521 flight status page for this flight to view local times or setup timezone preferences in your user account.

Time Position Orientation Groundspeed Altitude Reporting Facility
EST Latitude Longitude Course Direction KTS MPH feet Rate Location/Type
Fri 04:53:00 AM -26.0798 -48.1148 29° Northeast  Level Estimated
Fri 04:54:00 AM -26.0080 -48.0711 29° Northeast  Level Estimated
Fri 04:54:46 AM -25.8222 -47.8905 29° Northeast 450 518 29,900  Level FlightAware ADS-B
Fri 04:55:33 AM -25.7535 -47.8183 43° Northeast 429 494 33,200 2,500 Climbing FlightAware ADS-B
Fri 04:56:46 AM -25.6476 -47.7074 43° Northeast 429 494 34,900 812 Climbing FlightAware ADS-B
Fri 04:57:46 AM -25.5610 -47.6169 43° Northeast 432 497 35,000 50 Climbing FlightAware ADS-B
Fri 04:58:46 AM -25.4739 -47.5263 43° Northeast 433 498 35,000  Level FlightAware ADS-B
Fri 04:59:47 AM -25.3844 -47.4332 43° Northeast 435 501 35,000  Level FlightAware ADS-B
Fri 05:00:46 AM -25.2984 -47.3439 43° Northeast 438 504 35,000  Level FlightAware ADS-B
Fri 05:01:41 AM -25.2142 -47.2613 42° Northeast 434 499 35,000 -153 Level FlightAware ADS-B
Fri 05:02:44 AM -25.0995 -47.2074 23° Northeast 427 491 34,700 -1,137 Descending FlightAware ADS-B
Fri 05:03:16 AM -25.0364 -47.1820 20° North 428 493 33,200 -2,683 Descending FlightAware ADS-B
Fri 05:04:47 AM -24.8707 -47.1150 20° North 419 482 29,200 -2,543 Descending FlightAware ADS-B
Fri 05:05:47 AM -24.7636 -47.0719 20° North 402 463 26,800 -2,339 Descending FlightAware ADS-B
Fri 05:06:45 AM -24.6634 -47.0317 20° North 387 445 24,600 -2,318 Descending FlightAware ADS-B
Fri 05:07:15 AM -24.6136 -47.0117 20° North 377 434 23,400 -2,200 Descending FlightAware ADS-B
Fri 05:07:45 AM -24.5647 -46.9921 20° North 370 426 22,400 -2,067 Descending FlightAware ADS-B
Fri 05:08:45 AM -24.4716 -46.9506 22° Northeast 359 413 20,300 -2,176 Descending FlightAware ADS-B
Fri 05:09:16 AM -24.4228 -46.9255 25° Northeast 354 407 19,100 -2,083 Descending FlightAware ADS-B
Fri 05:10:46 AM -24.2948 -46.8594 25° Northeast 343 395 16,100 -2,026 Descending FlightAware ADS-B
Fri 05:11:47 AM -24.2085 -46.8148 25° Northeast 335 386 14,000 -1,815 Descending FlightAware ADS-B
Fri 05:12:45 AM -24.1284 -46.7737 25° Northeast 313 360 12,500 -1,432 Descending FlightAware ADS-B
Fri 05:13:15 AM -24.0882 -46.7532 25° Northeast 290 334 11,900 -1,150 Descending FlightAware ADS-B
Fri 05:14:45 AM -23.9910 -46.7030 25° Northeast 248 285 10,200 -1,150 Descending FlightAware ADS-B
Fri 05:15:15 AM -23.9604 -46.6873 25° Northeast 245 282 9,600 -1,100 Descending FlightAware ADS-B
Fri 05:15:45 AM -23.9280 -46.6708 25° Northeast 246 283 9,100 -989 Descending FlightAware ADS-B
Fri 05:16:46 AM -23.8687 -46.6344 29° Northeast 239 275 8,100 -876 Descending FlightAware ADS-B
Fri 05:17:14 AM -23.8491 -46.6099 49° Northeast 220 253 7,800 -885 Descending FlightAware ADS-B
Fri 05:17:47 AM -23.8269 -46.5817 49° Northeast 214 246 7,200 -1,097 Descending FlightAware ADS-B
Fri 05:18:47 AM -23.7837 -46.5466 37° Northeast 210 242 6,100 -1,146 Descending FlightAware ADS-B
Fri 05:19:16 AM -23.7606 -46.5636 326° Northwest 193 222 5,500 -1,241 Descending FlightAware ADS-B
Fri 05:19:45 AM -23.7395 -46.5788 327° Northwest 181 208 4,900 -1,000 Descending FlightAware ADS-B
Fri 05:20:46 AM -23.7009 -46.6052 328° Northwest 137 158 4,000 -867 Descending FlightAware ADS-B
Fri 05:21:15 AM -23.6861 -46.6155 328° Northwest 122 140 3,600 -724 Descending FlightAware ADS-B
Fri 05:21:44 AM -23.6722 -46.6249 328° Northwest 125 144 3,300 -682 Descending FlightAware ADS-B
Fri 05:22:43 AM -23.6423 -46.6457 327° Northwest 138 159 2,600 -450 Descending FlightAware ADS-B
Fri 05:23:44 AM -23.6221 -46.6596 328° Northwest 138 159 2,400 -197 Descending FlightAware ADS-B
Fri 05:26:00 AM -23.6267 -46.6554 140° Southeast  Level Estimated
Fri 05:27:00 AM -23.6267 -46.6554 114° Southeast  Level Estimated
Fri 05:28:00 AM -23.6267 -46.6554 114° Southeast  Level Estimated
Fri 05:29:00 AM -23.6267 -46.6554 114° Southeast  Level Estimated

Login

Don't have an account? Register now (free) for customized features, flight alerts, and more!